createdAt,value
2023-04-03T00:02:11.404Z,19.13
2023-04-03T00:04:38.448Z,22.10
2023-04-03T00:07:05.491Z,19.60
2023-04-03T00:09:32.512Z,21.77
2023-04-03T00:11:59.588Z,19.75
2023-04-03T00:14:26.650Z,21.13
2023-04-03T00:16:53.722Z,20.98
2023-04-03T00:19:20.847Z,21.05
2023-04-03T00:21:47.884Z,21.45
2023-04-03T00:24:14.908Z,22.27
2023-04-03T00:26:41.899Z,19.50
2023-04-03T00:29:08.926Z,20.95
2023-04-03T00:31:36.310Z,20.05
2023-04-03T00:34:03.379Z,18.55
2023-04-03T00:36:30.641Z,20.83
2023-04-03T00:38:57.789Z,21.50
2023-04-03T00:41:24.806Z,20.45
2023-04-03T00:43:51.834Z,21.25
2023-04-03T00:46:18.922Z,20.90
2023-04-03T00:48:47.010Z,19.98
2023-04-03T00:51:32.241Z,19.95
2023-04-03T00:54:04.304Z,17.73
2023-04-03T00:56:31.811Z,18.38
2023-04-03T00:59:05.015Z,21.23
2023-04-03T01:01:32.643Z,18.50
2023-04-03T01:04:04.032Z,20.38
2023-04-03T01:06:33.895Z,20.48
2023-04-03T01:09:01.227Z,20.02
2023-04-03T01:11:28.625Z,18.77
2023-04-03T01:13:55.705Z,17.80
2023-04-03T01:16:22.880Z,19.63
2023-04-03T01:18:50.007Z,19.02
2023-04-03T01:21:23.325Z,18.38
2023-04-03T01:23:57.702Z,16.52
2023-04-03T01:26:26.501Z,18.70
2023-04-03T01:28:55.412Z,16.45
2023-04-03T01:31:31.613Z,19.10
2023-04-03T01:33:58.727Z,18.08
2023-04-03T01:36:28.014Z,18.58
2023-04-03T01:38:55.565Z,18.42
2023-04-03T01:41:22.907Z,20.52
2023-04-03T01:43:50.593Z,20.02
2023-04-03T01:46:18.467Z,18.48
2023-04-03T01:48:45.545Z,18.05
2023-04-03T01:51:12.759Z,19.35
2023-04-03T01:53:40.048Z,19.33
2023-04-03T01:56:07.206Z,17.60
2023-04-03T01:58:34.297Z,21.08
2023-04-03T02:01:01.518Z,17.90
2023-04-03T02:03:28.690Z,16.58
2023-04-03T02:05:56.184Z,18.73
2023-04-03T02:08:23.258Z,17.70
2023-04-03T02:10:50.861Z,16.77
2023-04-03T02:13:18.467Z,16.88
2023-04-03T02:15:46.295Z,16.30
2023-04-03T02:18:14.077Z,16.50
2023-04-03T02:20:41.148Z,17.02
2023-04-03T02:23:08.352Z,17.35
2023-04-03T02:25:37.921Z,18.67
2023-04-03T02:28:05.815Z,18.02
2023-04-03T02:30:32.857Z,15.70
2023-04-03T02:32:59.930Z,16.35
2023-04-03T02:35:27.097Z,17.15
2023-04-03T02:37:54.163Z,17.30
2023-04-03T02:40:21.267Z,18.83
2023-04-03T02:42:48.371Z,15.43
2023-04-03T02:45:15.524Z,17.48
2023-04-03T02:47:42.594Z,17.17
2023-04-03T02:50:09.876Z,17.85
2023-04-03T02:52:36.954Z,15.98
2023-04-03T02:55:04.547Z,14.43
2023-04-03T02:57:31.718Z,16.63
2023-04-03T02:59:58.800Z,18.10
2023-04-03T03:02:25.904Z,15.93
2023-04-03T03:04:53.069Z,15.00
2023-04-03T03:07:20.200Z,17.35
2023-04-03T03:09:47.346Z,13.40
2023-04-03T03:12:14.384Z,12.55
2023-04-03T03:14:42.890Z,13.65
2023-04-03T03:17:09.899Z,11.60
2023-04-03T03:19:37.013Z,14.77
2023-04-03T03:22:04.152Z,15.10
2023-04-03T03:24:31.308Z,13.00
2023-04-03T03:26:58.517Z,12.13
2023-04-03T03:29:25.564Z,12.75
2023-04-03T03:31:52.698Z,11.63
2023-04-03T03:34:19.806Z,15.90
2023-04-03T03:36:46.893Z,13.10
2023-04-03T03:39:14.015Z,13.35
2023-04-03T03:41:41.141Z,13.13
2023-04-03T03:44:08.194Z,11.70
2023-04-03T03:46:35.352Z,12.18
2023-04-03T03:49:02.389Z,12.55
2023-04-03T03:51:29.448Z,15.73
2023-04-03T03:53:56.485Z,13.98
2023-04-03T03:56:23.537Z,12.55
2023-04-03T03:58:50.702Z,11.93
2023-04-03T04:01:18.165Z,11.88
2023-04-03T04:03:45.305Z,13.30
2023-04-03T04:06:12.457Z,12.02
2023-04-03T04:08:39.494Z,12.88
2023-04-03T04:11:06.609Z,12.82
2023-04-03T04:13:33.672Z,10.88
2023-04-03T04:16:00.713Z,13.15
2023-04-03T04:18:27.748Z,13.15
2023-04-03T04:20:54.892Z,11.40
2023-04-03T04:23:21.905Z,13.15
2023-04-03T04:25:49.543Z,11.30
2023-04-03T04:28:17.169Z,13.95
2023-04-03T04:30:44.384Z,10.45
2023-04-03T04:33:11.642Z,14.45
2023-04-03T04:35:38.965Z,12.30
2023-04-03T04:38:06.495Z,12.90
2023-04-03T04:40:33.552Z,11.98
2023-04-03T04:43:00.573Z,14.40
2023-04-03T04:45:27.579Z,10.32
2023-04-03T04:47:56.620Z,12.35
2023-04-03T04:50:24.121Z,13.63
2023-04-03T04:52:51.167Z,12.00
2023-04-03T04:55:18.492Z,13.68
2023-04-03T04:57:45.525Z,14.82
2023-04-03T05:00:13.014Z,13.43
2023-04-03T05:02:40.307Z,12.10
2023-04-03T05:05:07.791Z,11.80
2023-04-03T05:07:36.524Z,12.68
2023-04-03T05:10:04.506Z,11.38
2023-04-03T05:12:31.621Z,13.35
2023-04-03T05:14:58.636Z,12.38
2023-04-03T05:17:25.683Z,13.88
2023-04-03T05:19:52.729Z,10.85
2023-04-03T05:22:19.795Z,10.18
2023-04-03T05:24:46.818Z,12.38
2023-04-03T05:27:13.848Z,11.15
2023-04-03T05:29:45.162Z,13.98
2023-04-03T05:32:12.551Z,14.25
2023-04-03T05:34:39.596Z,13.27
2023-04-03T05:37:06.830Z,12.93
2023-04-03T05:39:34.612Z,10.13
2023-04-03T05:42:01.846Z,11.32
2023-04-03T05:44:28.865Z,12.13
2023-04-03T05:46:55.910Z,12.43
2023-04-03T05:49:23.243Z,13.38
2023-04-03T05:51:50.295Z,14.07
2023-04-03T05:54:30.374Z,12.18
2023-04-03T05:56:57.703Z,14.30
2023-04-03T05:59:24.766Z,13.88
2023-04-03T06:01:51.838Z,12.40
2023-04-03T06:04:20.151Z,13.32
2023-04-03T06:06:48.815Z,12.65
2023-04-03T06:09:17.131Z,15.00
2023-04-03T06:11:44.147Z,14.15
2023-04-03T06:14:11.635Z,15.73
2023-04-03T06:16:39.967Z,12.02
2023-04-03T06:19:07.961Z,13.20
2023-04-03T06:21:36.605Z,14.65
2023-04-03T06:24:04.639Z,13.63
2023-04-03T06:26:31.791Z,14.20
2023-04-03T06:28:59.168Z,13.88
2023-04-03T06:31:26.499Z,14.07
2023-04-03T06:33:53.500Z,13.82
2023-04-03T06:36:21.986Z,11.98
2023-04-03T06:38:49.677Z,10.13
2023-04-03T06:41:17.457Z,13.70
2023-04-03T06:43:47.551Z,11.85
2023-04-03T06:46:18.269Z,11.90
2023-04-03T06:48:45.663Z,15.60
2023-04-03T06:51:17.024Z,13.30
2023-04-03T06:53:44.120Z,12.10
2023-04-03T06:56:11.142Z,15.32
2023-04-03T06:58:38.349Z,14.05
2023-04-03T07:01:07.015Z,15.68
2023-04-03T07:03:35.514Z,13.85
2023-04-03T07:06:02.962Z,12.82
2023-04-03T07:08:30.061Z,12.93
2023-04-03T07:10:57.227Z,12.93
2023-04-03T07:13:24.294Z,12.15
2023-04-03T07:15:51.426Z,10.43
2023-04-03T07:18:18.609Z,11.90
2023-04-03T07:20:45.719Z,15.18
2023-04-03T07:23:12.962Z,14.18
2023-04-03T07:25:46.708Z,11.25
2023-04-03T07:28:14.153Z,11.38
2023-04-03T07:30:46.029Z,12.95
2023-04-03T07:33:14.088Z,14.23
2023-04-03T07:35:41.837Z,12.43
2023-04-03T07:38:09.262Z,13.80
2023-04-03T07:40:36.647Z,15.38
2023-04-03T07:43:03.701Z,11.25
2023-04-03T07:45:31.368Z,14.45
2023-04-03T07:47:58.688Z,10.50
2023-04-03T07:50:26.093Z,12.57
2023-04-03T07:52:55.395Z,13.95
2023-04-03T07:55:22.464Z,11.95
2023-04-03T07:57:49.511Z,12.98
2023-04-03T08:00:20.535Z,14.15
2023-04-03T08:02:52.995Z,15.95
2023-04-03T08:05:20.781Z,13.85
2023-04-03T08:07:47.812Z,14.43
2023-04-03T08:10:15.366Z,13.00
2023-04-03T08:12:43.040Z,15.32
2023-04-03T08:15:10.665Z,13.98
2023-04-03T08:17:37.849Z,16.25
2023-04-03T08:20:09.046Z,14.25
2023-04-03T08:22:38.682Z,14.50
2023-04-03T08:25:06.107Z,16.02
2023-04-03T08:27:35.922Z,14.05
2023-04-03T08:30:03.059Z,13.43
2023-04-03T08:32:30.355Z,14.10
2023-04-03T08:34:57.390Z,13.40
2023-04-03T08:37:24.450Z,13.10
2023-04-03T08:39:52.767Z,15.80
2023-04-03T08:42:38.068Z,17.58
2023-04-03T08:45:11.150Z,13.85
2023-04-03T08:47:57.716Z,10.10
2023-04-03T08:50:45.181Z,14.55
2023-04-03T08:53:20.968Z,14.95
2023-04-03T08:55:49.716Z,12.82
2023-04-03T08:58:18.435Z,16.42
2023-04-03T09:00:47.068Z,12.82
2023-04-03T09:03:15.770Z,11.60
2023-04-03T09:05:49.182Z,15.82
2023-04-03T09:08:23.302Z,13.82
2023-04-03T09:10:51.292Z,15.95
2023-04-03T09:13:35.506Z,11.23
2023-04-03T09:18:34.267Z,13.20
2023-04-03T09:21:01.267Z,14.25
2023-04-03T09:23:46.048Z,13.15
2023-04-03T09:26:20.160Z,12.05
2023-04-03T09:28:50.399Z,15.25
2023-04-03T09:31:25.738Z,13.98
2023-04-03T09:33:55.234Z,13.25
2023-04-03T09:36:41.779Z,12.00
2023-04-03T09:39:13.780Z,14.15
2023-04-03T09:41:40.913Z,13.35
2023-04-03T09:44:27.566Z,14.13
2023-04-03T09:46:56.098Z,13.63
2023-04-03T09:49:23.387Z,14.27
2023-04-03T09:51:50.499Z,10.73
2023-04-03T09:54:27.193Z,15.65
2023-04-03T09:56:56.396Z,11.13
2023-04-03T09:59:23.705Z,12.05
2023-04-03T10:02:26.530Z,13.98
2023-04-03T10:05:06.673Z,11.35
2023-04-03T10:07:37.991Z,13.95
2023-04-03T10:10:20.968Z,13.48
2023-04-03T10:12:48.845Z,12.82
2023-04-03T10:15:16.941Z,9.77
2023-04-03T10:17:47.254Z,12.35
2023-04-03T10:20:27.924Z,11.80
2023-04-03T10:23:04.399Z,11.68
2023-04-03T10:25:41.904Z,14.07
2023-04-03T10:28:20.457Z,14.15
2023-04-03T10:31:10.000Z,15.45
2023-04-03T10:33:57.274Z,14.55
2023-04-03T10:36:24.261Z,11.38
2023-04-03T10:39:02.294Z,11.40
2023-04-03T10:41:38.283Z,11.23
2023-04-03T10:44:17.538Z,14.40
2023-04-03T10:46:53.475Z,11.95
2023-04-03T10:49:42.491Z,12.50
2023-04-03T10:52:29.555Z,10.50
2023-04-03T10:55:04.228Z,9.85
2023-04-03T10:57:31.934Z,9.32
2023-04-03T11:00:01.468Z,11.85
2023-04-03T11:02:33.309Z,13.38
2023-04-03T11:05:09.362Z,12.82
2023-04-03T11:07:40.904Z,10.48
2023-04-03T11:10:20.320Z,12.00
2023-04-03T11:12:54.224Z,12.95
2023-04-03T11:17:53.526Z,9.82
2023-04-03T11:20:28.412Z,7.88
2023-04-03T11:23:00.199Z,8.38
2023-04-03T11:25:27.932Z,10.07
2023-04-03T11:27:59.698Z,8.60
2023-04-03T11:30:47.110Z,12.65
2023-04-03T11:33:19.935Z,12.70
2023-04-03T11:35:48.794Z,10.98
2023-04-03T11:38:21.577Z,10.13
2023-04-03T11:40:48.916Z,10.30
2023-04-03T11:43:18.913Z,9.50
2023-04-03T11:45:55.769Z,9.82
2023-04-03T11:48:29.335Z,10.95
2023-04-03T11:50:59.811Z,10.93
2023-04-03T11:53:28.820Z,12.85
2023-04-03T11:55:57.406Z,8.27
2023-04-03T11:58:28.118Z,11.88
2023-04-03T12:00:57.624Z,10.75
2023-04-03T12:03:30.959Z,14.55
2023-04-03T12:06:07.802Z,8.27
2023-04-03T12:08:35.279Z,8.75
2023-04-03T12:11:14.678Z,6.32
2023-04-03T12:13:41.858Z,5.30
2023-04-03T12:16:20.515Z,7.93
2023-04-03T12:18:50.463Z,9.02
2023-04-03T12:21:19.837Z,9.57
2023-04-03T12:24:03.608Z,7.45
2023-04-03T12:26:38.384Z,7.70
2023-04-03T12:29:26.393Z,8.35
2023-04-03T12:32:02.643Z,4.18
2023-04-03T12:34:41.489Z,11.75
2023-04-03T12:37:27.574Z,9.18
2023-04-03T12:39:57.814Z,6.22
2023-04-03T12:42:31.283Z,7.95
2023-04-03T12:45:02.200Z,4.25
2023-04-03T12:47:33.801Z,3.90
2023-04-03T12:50:02.806Z,6.93
2023-04-03T12:52:43.947Z,6.10
2023-04-03T12:55:18.403Z,8.07
2023-04-03T12:57:45.677Z,9.02
2023-04-03T13:00:35.587Z,9.35
2023-04-03T13:03:04.870Z,5.85
2023-04-03T13:05:34.563Z,7.00
2023-04-03T13:08:06.669Z,6.50
2023-04-03T13:10:44.339Z,4.35
2023-04-03T13:13:15.953Z,5.43
2023-04-03T13:15:46.287Z,5.53
2023-04-03T13:18:25.896Z,9.38
2023-04-03T13:20:53.931Z,8.38
2023-04-03T13:23:21.929Z,5.53
2023-04-03T13:25:49.671Z,10.85
2023-04-03T13:28:21.049Z,6.25
2023-04-03T13:31:02.873Z,7.55
2023-04-03T13:33:34.497Z,3.50
2023-04-03T13:36:05.021Z,6.18
2023-04-03T13:38:34.532Z,7.18
2023-04-03T13:41:04.062Z,9.70
2023-04-03T13:43:33.937Z,9.05
2023-04-03T13:46:21.940Z,7.47
2023-04-03T13:48:52.644Z,14.93
2023-04-03T13:51:23.903Z,7.55
2023-04-03T13:53:57.913Z,8.02
2023-04-03T13:56:27.813Z,12.25
2023-04-03T13:58:56.687Z,9.70
2023-04-03T14:01:24.368Z,8.15
2023-04-03T14:03:54.339Z,5.10
2023-04-03T14:06:21.571Z,8.43
2023-04-03T14:08:49.833Z,6.30
2023-04-03T14:11:21.710Z,6.88
2023-04-03T14:13:48.896Z,8.10
2023-04-03T14:16:19.455Z,8.73
2023-04-03T14:18:47.453Z,8.27
2023-04-03T14:21:16.206Z,7.88
2023-04-03T14:23:43.067Z,6.20
2023-04-03T14:26:19.009Z,4.15
2023-04-03T14:28:47.385Z,6.03
2023-04-03T14:31:15.722Z,9.93
2023-04-03T14:33:42.776Z,4.88
2023-04-03T14:36:17.529Z,5.38
2023-04-03T14:38:45.359Z,6.35
2023-04-03T14:41:17.036Z,6.00
2023-04-03T14:43:45.343Z,6.25
2023-04-03T14:46:18.933Z,7.13
2023-04-03T14:48:46.279Z,4.65
2023-04-03T14:51:14.662Z,6.00
2023-04-03T14:53:42.845Z,3.75
2023-04-03T14:56:29.241Z,2.85
2023-04-03T14:59:00.571Z,4.78
2023-04-03T15:01:29.335Z,6.07
2023-04-03T15:03:56.751Z,3.83
2023-04-03T15:06:23.997Z,5.10
2023-04-03T15:08:51.117Z,8.10
2023-04-03T15:11:18.215Z,5.75
2023-04-03T15:13:45.436Z,9.02
2023-04-03T15:16:15.840Z,6.05
2023-04-03T15:18:42.991Z,4.78
2023-04-03T15:21:10.010Z,7.45
2023-04-03T15:23:37.338Z,4.90
2023-04-03T15:26:04.564Z,4.30
2023-04-03T15:28:32.800Z,6.28
2023-04-03T15:31:00.461Z,4.97
2023-04-03T15:33:27.876Z,4.68
2023-04-03T15:36:02.982Z,5.45
2023-04-03T15:38:34.981Z,4.22
2023-04-03T15:41:02.716Z,5.82
2023-04-03T15:43:29.828Z,5.60
2023-04-03T15:46:00.588Z,6.75
2023-04-03T15:48:28.474Z,7.60
2023-04-03T15:50:57.631Z,4.63
2023-04-03T15:53:24.988Z,4.60
2023-04-03T15:55:52.014Z,6.22
2023-04-03T15:58:19.154Z,4.35
2023-04-03T16:00:46.222Z,5.32
2023-04-03T16:03:17.800Z,6.03
2023-04-03T16:05:45.520Z,5.10
2023-04-03T16:08:13.279Z,7.93
2023-04-03T16:10:40.928Z,6.95
2023-04-03T16:13:08.574Z,5.90
2023-04-03T16:15:36.656Z,8.80
2023-04-03T16:18:03.970Z,3.97
2023-04-03T16:20:31.491Z,5.95
2023-04-03T16:22:59.781Z,6.07
2023-04-03T16:25:27.317Z,8.32
2023-04-03T16:27:54.441Z,11.88
2023-04-03T16:30:21.278Z,6.45
2023-04-03T16:32:48.491Z,4.72
2023-04-03T16:35:15.720Z,6.80
2023-04-03T16:37:42.721Z,6.07
2023-04-03T16:40:10.382Z,7.50
2023-04-03T16:42:38.018Z,7.90
2023-04-03T16:45:06.792Z,6.88
2023-04-03T16:47:33.915Z,6.80
2023-04-03T16:50:01.045Z,8.52
2023-04-03T16:52:28.349Z,7.50
2023-04-03T16:54:56.500Z,4.32
2023-04-03T16:57:25.722Z,18.63
2023-04-03T16:59:53.206Z,14.82
2023-04-03T17:02:20.858Z,9.73
2023-04-03T17:04:52.184Z,7.70
2023-04-03T17:07:20.397Z,9.77
2023-04-03T17:09:47.734Z,8.10
2023-04-03T17:12:14.884Z,7.60
2023-04-03T17:14:41.975Z,6.97
2023-04-03T17:17:09.293Z,8.35
2023-04-03T17:19:37.390Z,6.28
2023-04-03T17:22:04.560Z,8.88
2023-04-03T17:24:31.284Z,9.13
2023-04-03T17:26:57.881Z,5.47
2023-04-03T17:29:24.777Z,4.65
2023-04-03T17:31:51.756Z,6.93
2023-04-03T17:34:18.540Z,4.53
2023-04-03T17:36:45.256Z,7.45
2023-04-03T17:39:11.982Z,8.93
2023-04-03T17:41:38.550Z,9.05
2023-04-03T17:44:06.030Z,9.30
2023-04-03T17:46:34.096Z,6.25
2023-04-03T17:49:03.337Z,6.00
2023-04-03T17:51:30.885Z,6.88
2023-04-03T17:53:57.532Z,5.18
2023-04-03T17:56:27.103Z,5.78
2023-04-03T17:58:56.496Z,10.98
2023-04-03T18:01:28.982Z,5.97
2023-04-03T18:03:57.880Z,7.70
2023-04-03T18:06:33.540Z,7.55
2023-04-03T18:09:11.179Z,5.07
2023-04-03T18:11:38.594Z,7.57
2023-04-03T18:14:08.607Z,7.05
2023-04-03T18:16:36.271Z,8.15
2023-04-03T18:19:21.133Z,6.47
2023-04-03T18:21:50.282Z,9.27
2023-04-03T18:24:19.068Z,6.10
2023-04-03T18:26:54.306Z,6.22
2023-04-03T18:29:21.962Z,8.80
2023-04-03T18:31:51.180Z,9.82
2023-04-03T18:34:18.896Z,8.50
2023-04-03T18:36:46.558Z,8.40
2023-04-03T18:39:13.776Z,10.02
2023-04-03T18:41:41.043Z,10.48
2023-04-03T18:44:10.767Z,9.73
2023-04-03T18:49:10.620Z,8.55
2023-04-03T18:51:40.964Z,9.90
2023-04-03T18:54:10.193Z,7.95
2023-04-03T18:56:37.792Z,6.53
2023-04-03T18:59:08.641Z,9.30
2023-04-03T19:01:36.163Z,7.13
2023-04-03T19:04:03.562Z,9.05
2023-04-03T19:06:30.605Z,6.45
2023-04-03T19:08:57.676Z,7.93
2023-04-03T19:11:24.921Z,6.32
2023-04-03T19:14:10.687Z,10.93
2023-04-03T19:16:41.533Z,5.78
2023-04-03T19:19:08.628Z,11.55
2023-04-03T19:21:40.676Z,6.32
2023-04-03T19:24:12.059Z,10.75
2023-04-03T19:26:39.341Z,8.07
2023-04-03T19:29:06.513Z,7.20
2023-04-03T19:31:34.277Z,9.32
2023-04-03T19:34:03.781Z,6.25
2023-04-03T19:36:31.354Z,8.27
2023-04-03T19:38:58.417Z,6.80
2023-04-03T19:41:27.998Z,7.20
2023-04-03T19:43:56.345Z,6.65
2023-04-03T19:46:27.686Z,6.05
2023-04-03T19:48:54.836Z,9.13
2023-04-03T19:51:22.030Z,7.38
2023-04-03T19:53:51.555Z,11.20
2023-04-03T19:56:20.663Z,12.13
2023-04-03T19:58:53.603Z,8.30
2023-04-03T20:01:21.720Z,7.45
2023-04-03T20:03:51.043Z,10.45
2023-04-03T20:06:21.521Z,8.52
2023-04-03T20:08:49.160Z,9.20
2023-04-03T20:11:19.576Z,11.52
2023-04-03T20:13:49.193Z,7.80
2023-04-03T20:16:17.088Z,17.92
2023-04-03T20:18:44.469Z,10.57
2023-04-03T20:21:12.077Z,11.90
2023-04-03T20:23:39.260Z,13.30
2023-04-03T20:26:10.777Z,9.65
2023-04-03T20:28:40.618Z,9.38
2023-04-03T20:31:09.128Z,11.80
2023-04-03T20:33:37.173Z,9.90
2023-04-03T20:36:04.145Z,10.73
2023-04-03T20:38:31.156Z,8.80
2023-04-03T20:40:57.863Z,7.50
2023-04-03T20:43:25.304Z,7.75
2023-04-03T20:45:51.968Z,11.40
2023-04-03T20:48:19.486Z,8.05
2023-04-03T20:50:46.786Z,10.18
2023-04-03T20:53:14.749Z,10.05
2023-04-03T20:55:43.901Z,8.50
2023-04-03T20:58:11.293Z,10.35
2023-04-03T21:00:38.390Z,7.97
2023-04-03T21:03:05.819Z,13.32
2023-04-03T21:05:34.952Z,6.57
2023-04-03T21:08:39.920Z,10.82
2023-04-03T21:11:44.110Z,10.88
2023-04-03T21:14:48.879Z,11.32
2023-04-03T21:17:15.544Z,10.90
2023-04-03T21:19:46.217Z,8.32
2023-04-03T21:22:14.060Z,10.60
2023-04-03T21:24:41.148Z,10.25
2023-04-03T21:27:08.429Z,8.98
2023-04-03T21:29:35.736Z,9.75
2023-04-03T21:32:02.947Z,8.13
2023-04-03T21:34:30.880Z,12.18
2023-04-03T21:37:01.338Z,9.07
2023-04-03T21:39:28.874Z,9.52
2023-04-03T21:41:55.966Z,9.52
2023-04-03T21:44:23.358Z,9.43
2023-04-03T21:46:54.351Z,8.10
2023-04-03T21:49:24.924Z,9.63
2023-04-03T21:51:52.383Z,13.38
2023-04-03T21:54:20.436Z,8.32
2023-04-03T21:56:48.291Z,7.93
2023-04-03T21:59:15.851Z,8.35
2023-04-03T22:01:43.206Z,9.43
2023-04-03T22:04:10.824Z,9.05
2023-04-03T22:06:38.064Z,10.93
2023-04-03T22:09:05.431Z,11.32
2023-04-03T22:11:32.892Z,9.45
2023-04-03T22:14:00.152Z,12.43
2023-04-03T22:16:27.391Z,9.38
2023-04-03T22:18:56.091Z,8.30
2023-04-03T22:21:23.190Z,9.10
2023-04-03T22:23:50.589Z,8.05
2023-04-03T22:26:17.769Z,10.52
2023-04-03T22:28:46.285Z,8.55
2023-04-03T22:31:14.257Z,8.85
2023-04-03T22:33:41.957Z,12.55
2023-04-03T22:36:10.028Z,12.98
2023-04-03T22:38:37.839Z,13.60
2023-04-03T22:41:06.148Z,11.10
2023-04-03T22:43:33.872Z,11.93
2023-04-03T22:46:01.588Z,9.10
2023-04-03T22:48:29.003Z,10.50
2023-04-03T22:50:56.428Z,13.38
2023-04-03T22:53:23.533Z,11.52
2023-04-03T22:56:00.562Z,9.55
2023-04-03T22:58:28.730Z,11.13
2023-04-03T23:00:56.605Z,11.23
2023-04-03T23:03:24.993Z,8.40
2023-04-03T23:05:53.730Z,10.23
2023-04-03T23:08:20.841Z,9.30
2023-04-03T23:10:48.397Z,10.93
2023-04-03T23:13:15.444Z,9.93
2023-04-03T23:15:42.456Z,6.45
2023-04-03T23:18:09.824Z,11.88
2023-04-03T23:20:37.091Z,10.73
2023-04-03T23:23:04.209Z,9.55
2023-04-03T23:25:31.421Z,10.63
2023-04-03T23:27:58.445Z,12.52
2023-04-03T23:30:25.558Z,7.80
2023-04-03T23:32:52.583Z,9.60
2023-04-03T23:35:19.648Z,10.77
2023-04-03T23:37:46.862Z,9.15
2023-04-03T23:40:14.014Z,9.63
2023-04-03T23:42:41.348Z,9.45
2023-04-03T23:45:08.833Z,8.15
2023-04-03T23:47:36.683Z,11.20
2023-04-03T23:50:03.992Z,10.32
2023-04-03T23:52:31.112Z,10.27
2023-04-03T23:54:58.629Z,6.97
2023-04-03T23:57:25.661Z,8.38
2023-04-03T23:59:52.706Z,8.88
